Oxford House, Canada
Current Conditions -  °F | °C
As of 4:00 AM on Wednesday 26 Nov 2014 (Local Time) from CYIV Reporting Station
Blowing Snow Blowing Snow  
Wind Chill: -42°   Ceiling: Unl
Heat Index: -20°   Visibility: 15mi
Dew Point: -26°   Wind: 12mph
Humidity: 76%   Direction: 280°W
Pressure: 30.28"   Gusts: NA
Location:  54.95°N, 95.27°W
Report Text: CYIV 261000Z 28010KT 15SM DRSN SKC M29/M32 A3028 RMK SLP290
Loading
Personal Weather Stations






























Interactive Weather Map New forecast layout! Learn more

10-Day Weather Forecast

Advertisements
Track Severe Weather on mobile